sensor_id;sensor_type;location;lat;lon;timestamp;P1;durP1;ratioP1;P2;durP2;ratioP2
14092;SDS011;7123;49.468;10.992;2023-12-20T00:01:10;4.47;;;3.80;;
14092;SDS011;7123;49.468;10.992;2023-12-20T00:03:37;6.73;;;4.27;;
14092;SDS011;7123;49.468;10.992;2023-12-20T00:06:08;4.30;;;3.90;;
14092;SDS011;7123;49.468;10.992;2023-12-20T00:08:35;5.60;;;4.50;;
14092;SDS011;7123;49.468;10.992;2023-12-20T00:11:02;3.97;;;3.57;;
14092;SDS011;7123;49.468;10.992;2023-12-20T00:13:29;5.80;;;4.10;;
14092;SDS011;7123;49.468;10.992;2023-12-20T00:15:56;4.53;;;3.90;;
14092;SDS011;7123;49.468;10.992;2023-12-20T00:18:25;5.33;;;4.17;;
14092;SDS011;7123;49.468;10.992;2023-12-20T00:20:52;4.87;;;4.07;;
14092;SDS011;7123;49.468;10.992;2023-12-20T00:23:19;5.70;;;4.17;;
14092;SDS011;7123;49.468;10.992;2023-12-20T00:25:46;4.93;;;4.10;;
14092;SDS011;7123;49.468;10.992;2023-12-20T00:28:13;6.30;;;3.83;;
14092;SDS011;7123;49.468;10.992;2023-12-20T00:30:40;6.23;;;4.10;;
14092;SDS011;7123;49.468;10.992;2023-12-20T00:33:06;5.03;;;4.07;;
14092;SDS011;7123;49.468;10.992;2023-12-20T00:35:33;6.77;;;3.90;;
14092;SDS011;7123;49.468;10.992;2023-12-20T00:38:00;5.37;;;3.90;;
14092;SDS011;7123;49.468;10.992;2023-12-20T00:40:27;8.13;;;4.20;;
14092;SDS011;7123;49.468;10.992;2023-12-20T00:42:54;5.37;;;4.00;;
14092;SDS011;7123;49.468;10.992;2023-12-20T00:45:20;5.00;;;3.93;;
14092;SDS011;7123;49.468;10.992;2023-12-20T00:47:47;7.73;;;3.83;;
14092;SDS011;7123;49.468;10.992;2023-12-20T00:50:14;10.13;;;3.60;;
14092;SDS011;7123;49.468;10.992;2023-12-20T00:52:41;5.50;;;3.73;;
14092;SDS011;7123;49.468;10.992;2023-12-20T00:55:08;5.03;;;3.70;;
14092;SDS011;7123;49.468;10.992;2023-12-20T00:57:35;4.70;;;3.57;;
14092;SDS011;7123;49.468;10.992;2023-12-20T01:00:02;4.53;;;3.50;;
14092;SDS011;7123;49.468;10.992;2023-12-20T01:02:29;6.97;;;3.93;;
14092;SDS011;7123;49.468;10.992;2023-12-20T01:04:55;4.83;;;3.60;;
14092;SDS011;7123;49.468;10.992;2023-12-20T01:07:22;5.17;;;3.43;;
14092;SDS011;7123;49.468;10.992;2023-12-20T01:09:49;4.23;;;3.10;;
14092;SDS011;7123;49.468;10.992;2023-12-20T01:12:16;3.10;;;2.80;;
14092;SDS011;7123;49.468;10.992;2023-12-20T01:14:42;3.07;;;2.87;;
14092;SDS011;7123;49.468;10.992;2023-12-20T01:17:09;2.70;;;2.50;;
14092;SDS011;7123;49.468;10.992;2023-12-20T01:19:36;3.07;;;2.27;;
14092;SDS011;7123;49.468;10.992;2023-12-20T01:22:03;5.50;;;2.50;;
14092;SDS011;7123;49.468;10.992;2023-12-20T01:24:30;2.43;;;2.00;;
14092;SDS011;7123;49.468;10.992;2023-12-20T01:26:57;2.50;;;2.17;;
14092;SDS011;7123;49.468;10.992;2023-12-20T01:29:24;2.23;;;1.80;;
14092;SDS011;7123;49.468;10.992;2023-12-20T01:31:51;2.50;;;1.87;;
14092;SDS011;7123;49.468;10.992;2023-12-20T01:34:18;3.13;;;1.83;;
14092;SDS011;7123;49.468;10.992;2023-12-20T01:36:45;3.13;;;1.63;;
14092;SDS011;7123;49.468;10.992;2023-12-20T01:39:12;1.93;;;1.80;;
14092;SDS011;7123;49.468;10.992;2023-12-20T01:41:53;1.73;;;1.60;;
14092;SDS011;7123;49.468;10.992;2023-12-20T01:44:20;2.20;;;2.00;;
14092;SDS011;7123;49.468;10.992;2023-12-20T01:46:46;2.03;;;1.90;;
14092;SDS011;7123;49.468;10.992;2023-12-20T01:49:14;1.90;;;1.80;;
14092;SDS011;7123;49.468;10.992;2023-12-20T01:51:41;3.43;;;1.37;;
14092;SDS011;7123;49.468;10.992;2023-12-20T01:54:09;1.70;;;1.60;;
14092;SDS011;7123;49.468;10.992;2023-12-20T01:56:36;5.00;;;1.90;;
14092;SDS011;7123;49.468;10.992;2023-12-20T01:59:03;1.63;;;1.53;;
14092;SDS011;7123;49.468;10.992;2023-12-20T02:01:31;1.53;;;1.43;;
14092;SDS011;7123;49.468;10.992;2023-12-20T02:03:58;1.67;;;1.53;;
14092;SDS011;7123;49.468;10.992;2023-12-20T02:06:25;1.60;;;1.50;;
14092;SDS011;7123;49.468;10.992;2023-12-20T02:08:57;1.30;;;1.20;;
14092;SDS011;7123;49.468;10.992;2023-12-20T02:11:25;1.83;;;1.43;;
14092;SDS011;7123;49.468;10.992;2023-12-20T02:13:52;1.50;;;1.40;;
14092;SDS011;7123;49.468;10.992;2023-12-20T02:16:19;1.37;;;1.27;;
14092;SDS011;7123;49.468;10.992;2023-12-20T02:18:47;1.20;;;1.10;;
14092;SDS011;7123;49.468;10.992;2023-12-20T02:21:14;1.30;;;1.20;;
14092;SDS011;7123;49.468;10.992;2023-12-20T02:23:41;1.30;;;1.10;;
14092;SDS011;7123;49.468;10.992;2023-12-20T02:26:08;1.13;;;1.00;;
14092;SDS011;7123;49.468;10.992;2023-12-20T02:28:35;1.30;;;1.20;;
14092;SDS011;7123;49.468;10.992;2023-12-20T02:31:02;1.23;;;1.20;;
14092;SDS011;7123;49.468;10.992;2023-12-20T02:33:29;1.47;;;0.80;;
14092;SDS011;7123;49.468;10.992;2023-12-20T02:35:56;0.90;;;0.90;;
14092;SDS011;7123;49.468;10.992;2023-12-20T02:38:23;0.90;;;0.90;;
14092;SDS011;7123;49.468;10.992;2023-12-20T02:40:49;0.70;;;0.70;;
14092;SDS011;7123;49.468;10.992;2023-12-20T02:43:16;0.70;;;0.70;;
14092;SDS011;7123;49.468;10.992;2023-12-20T02:45:43;0.97;;;0.97;;
14092;SDS011;7123;49.468;10.992;2023-12-20T02:48:10;0.63;;;0.63;;
14092;SDS011;7123;49.468;10.992;2023-12-20T02:50:36;0.80;;;0.80;;
14092;SDS011;7123;49.468;10.992;2023-12-20T02:53:03;0.90;;;0.90;;
14092;SDS011;7123;49.468;10.992;2023-12-20T02:55:30;0.90;;;0.90;;
14092;SDS011;7123;49.468;10.992;2023-12-20T02:57:57;1.53;;;0.90;;
14092;SDS011;7123;49.468;10.992;2023-12-20T03:00:24;0.80;;;0.80;;
14092;SDS011;7123;49.468;10.992;2023-12-20T03:02:50;0.73;;;0.73;;
14092;SDS011;7123;49.468;10.992;2023-12-20T03:05:17;0.83;;;0.77;;
14092;SDS011;7123;49.468;10.992;2023-12-20T03:07:44;1.03;;;0.60;;
14092;SDS011;7123;49.468;10.992;2023-12-20T03:10:12;1.03;;;0.70;;
14092;SDS011;7123;49.468;10.992;2023-12-20T03:12:49;1.03;;;0.53;;
14092;SDS011;7123;49.468;10.992;2023-12-20T03:15:16;0.50;;;0.50;;
14092;SDS011;7123;49.468;10.992;2023-12-20T03:17:42;1.80;;;0.67;;
14092;SDS011;7123;49.468;10.992;2023-12-20T03:20:10;0.83;;;0.50;;
14092;SDS011;7123;49.468;10.992;2023-12-20T03:22:37;0.50;;;0.50;;
14092;SDS011;7123;49.468;10.992;2023-12-20T03:25:04;0.60;;;0.60;;
14092;SDS011;7123;49.468;10.992;2023-12-20T03:27:31;2.07;;;0.50;;
14092;SDS011;7123;49.468;10.992;2023-12-20T03:29:58;1.97;;;0.40;;
14092;SDS011;7123;49.468;10.992;2023-12-20T03:32:25;0.50;;;0.50;;
14092;SDS011;7123;49.468;10.992;2023-12-20T03:34:51;0.67;;;0.67;;
14092;SDS011;7123;49.468;10.992;2023-12-20T03:37:18;0.60;;;0.60;;
14092;SDS011;7123;49.468;10.992;2023-12-20T03:39:45;0.67;;;0.67;;
14092;SDS011;7123;49.468;10.992;2023-12-20T03:42:12;0.60;;;0.60;;
14092;SDS011;7123;49.468;10.992;2023-12-20T03:44:39;0.60;;;0.60;;
14092;SDS011;7123;49.468;10.992;2023-12-20T03:47:09;0.77;;;0.77;;
14092;SDS011;7123;49.468;10.992;2023-12-20T03:49:35;0.80;;;0.80;;
14092;SDS011;7123;49.468;10.992;2023-12-20T03:52:05;0.80;;;0.80;;
14092;SDS011;7123;49.468;10.992;2023-12-20T03:54:32;0.70;;;0.70;;
14092;SDS011;7123;49.468;10.992;2023-12-20T03:56:59;0.70;;;0.70;;
14092;SDS011;7123;49.468;10.992;2023-12-20T03:59:25;1.40;;;0.70;;
14092;SDS011;7123;49.468;10.992;2023-12-20T04:01:52;0.70;;;0.70;;
14092;SDS011;7123;49.468;10.992;2023-12-20T04:04:19;1.40;;;0.80;;
14092;SDS011;7123;49.468;10.992;2023-12-20T04:06:46;0.80;;;0.80;;
14092;SDS011;7123;49.468;10.992;2023-12-20T04:09:13;0.80;;;0.80;;
14092;SDS011;7123;49.468;10.992;2023-12-20T04:11:39;0.73;;;0.73;;
14092;SDS011;7123;49.468;10.992;2023-12-20T04:14:06;0.63;;;0.63;;
14092;SDS011;7123;49.468;10.992;2023-12-20T04:16:33;1.57;;;0.70;;
14092;SDS011;7123;49.468;10.992;2023-12-20T04:19:00;0.60;;;0.60;;
14092;SDS011;7123;49.468;10.992;2023-12-20T04:21:27;0.80;;;0.80;;
14092;SDS011;7123;49.468;10.992;2023-12-20T04:23:54;3.53;;;0.90;;
14092;SDS011;7123;49.468;10.992;2023-12-20T04:26:21;0.80;;;0.80;;
14092;SDS011;7123;49.468;10.992;2023-12-20T04:28:47;0.70;;;0.70;;
14092;SDS011;7123;49.468;10.992;2023-12-20T04:31:16;0.70;;;0.70;;
14092;SDS011;7123;49.468;10.992;2023-12-20T04:33:43;0.80;;;0.80;;
14092;SDS011;7123;49.468;10.992;2023-12-20T04:36:10;0.70;;;0.70;;
14092;SDS011;7123;49.468;10.992;2023-12-20T04:38:36;0.90;;;0.70;;
14092;SDS011;7123;49.468;10.992;2023-12-20T04:41:03;0.70;;;0.70;;
14092;SDS011;7123;49.468;10.992;2023-12-20T04:43:30;0.90;;;0.90;;
14092;SDS011;7123;49.468;10.992;2023-12-20T04:45:57;0.73;;;0.73;;
14092;SDS011;7123;49.468;10.992;2023-12-20T04:48:23;0.80;;;0.80;;
14092;SDS011;7123;49.468;10.992;2023-12-20T04:50:50;0.83;;;0.83;;
14092;SDS011;7123;49.468;10.992;2023-12-20T04:53:17;1.67;;;0.80;;
14092;SDS011;7123;49.468;10.992;2023-12-20T04:55:44;0.80;;;0.80;;
14092;SDS011;7123;49.468;10.992;2023-12-20T04:58:11;0.70;;;0.70;;
14092;SDS011;7123;49.468;10.992;2023-12-20T05:00:38;0.70;;;0.70;;
14092;SDS011;7123;49.468;10.992;2023-12-20T05:03:05;0.80;;;0.80;;
14092;SDS011;7123;49.468;10.992;2023-12-20T05:05:31;0.63;;;0.63;;
14092;SDS011;7123;49.468;10.992;2023-12-20T05:07:58;0.80;;;0.80;;
14092;SDS011;7123;49.468;10.992;2023-12-20T05:10:25;0.60;;;0.60;;
14092;SDS011;7123;49.468;10.992;2023-12-20T05:12:53;1.13;;;0.70;;
14092;SDS011;7123;49.468;10.992;2023-12-20T05:15:20;0.70;;;0.70;;
14092;SDS011;7123;49.468;10.992;2023-12-20T05:17:46;1.00;;;1.00;;
14092;SDS011;7123;49.468;10.992;2023-12-20T05:20:14;0.80;;;0.80;;
14092;SDS011;7123;49.468;10.992;2023-12-20T05:22:41;1.00;;;0.90;;
14092;SDS011;7123;49.468;10.992;2023-12-20T05:25:07;0.90;;;0.90;;
14092;SDS011;7123;49.468;10.992;2023-12-20T05:27:34;1.00;;;1.00;;
14092;SDS011;7123;49.468;10.992;2023-12-20T05:30:01;0.80;;;0.80;;
14092;SDS011;7123;49.468;10.992;2023-12-20T05:32:28;0.80;;;0.80;;
14092;SDS011;7123;49.468;10.992;2023-12-20T05:34:55;0.70;;;0.70;;
14092;SDS011;7123;49.468;10.992;2023-12-20T05:37:22;0.60;;;0.60;;
14092;SDS011;7123;49.468;10.992;2023-12-20T05:39:48;0.80;;;0.80;;
14092;SDS011;7123;49.468;10.992;2023-12-20T05:42:15;0.70;;;0.70;;
14092;SDS011;7123;49.468;10.992;2023-12-20T05:44:42;0.80;;;0.80;;
14092;SDS011;7123;49.468;10.992;2023-12-20T05:47:09;2.77;;;0.60;;
14092;SDS011;7123;49.468;10.992;2023-12-20T05:49:35;0.60;;;0.60;;
14092;SDS011;7123;49.468;10.992;2023-12-20T05:52:02;0.77;;;0.77;;
14092;SDS011;7123;49.468;10.992;2023-12-20T05:54:29;0.80;;;0.80;;
14092;SDS011;7123;49.468;10.992;2023-12-20T05:56:56;1.17;;;1.07;;
14092;SDS011;7123;49.468;10.992;2023-12-20T05:59:23;0.80;;;0.80;;
14092;SDS011;7123;49.468;10.992;2023-12-20T06:01:50;1.00;;;1.00;;
14092;SDS011;7123;49.468;10.992;2023-12-20T06:04:16;1.00;;;1.00;;
14092;SDS011;7123;49.468;10.992;2023-12-20T06:06:43;1.00;;;1.00;;
14092;SDS011;7123;49.468;10.992;2023-12-20T06:09:10;1.00;;;0.90;;
14092;SDS011;7123;49.468;10.992;2023-12-20T06:11:37;1.10;;;1.10;;
14092;SDS011;7123;49.468;10.992;2023-12-20T06:14:04;1.20;;;1.20;;
14092;SDS011;7123;49.468;10.992;2023-12-20T06:16:31;1.20;;;1.20;;
14092;SDS011;7123;49.468;10.992;2023-12-20T06:18:57;1.80;;;1.50;;
14092;SDS011;7123;49.468;10.992;2023-12-20T06:21:24;1.10;;;1.10;;
14092;SDS011;7123;49.468;10.992;2023-12-20T06:23:51;1.50;;;1.40;;
14092;SDS011;7123;49.468;10.992;2023-12-20T06:26:18;1.27;;;1.23;;
14092;SDS011;7123;49.468;10.992;2023-12-20T06:28:45;1.13;;;1.10;;
14092;SDS011;7123;49.468;10.992;2023-12-20T06:31:11;1.30;;;1.20;;
14092;SDS011;7123;49.468;10.992;2023-12-20T06:33:38;1.43;;;1.33;;
14092;SDS011;7123;49.468;10.992;2023-12-20T06:36:07;5.37;;;1.60;;
14092;SDS011;7123;49.468;10.992;2023-12-20T06:38:36;1.60;;;1.50;;
14092;SDS011;7123;49.468;10.992;2023-12-20T06:41:03;1.80;;;1.70;;
14092;SDS011;7123;49.468;10.992;2023-12-20T06:43:30;1.90;;;1.80;;
14092;SDS011;7123;49.468;10.992;2023-12-20T06:46:14;1.50;;;1.40;;
14092;SDS011;7123;49.468;10.992;2023-12-20T06:48:41;3.07;;;2.00;;
14092;SDS011;7123;49.468;10.992;2023-12-20T06:51:10;2.30;;;1.80;;
14092;SDS011;7123;49.468;10.992;2023-12-20T06:53:41;1.93;;;1.73;;
14092;SDS011;7123;49.468;10.992;2023-12-20T06:56:10;2.10;;;1.60;;
14092;SDS011;7123;49.468;10.992;2023-12-20T06:58:41;1.90;;;1.80;;
14092;SDS011;7123;49.468;10.992;2023-12-20T07:01:14;2.00;;;1.90;;
14092;SDS011;7123;49.468;10.992;2023-12-20T07:03:41;2.30;;;2.10;;
14092;SDS011;7123;49.468;10.992;2023-12-20T07:06:08;2.50;;;2.30;;
14092;SDS011;7123;49.468;10.992;2023-12-20T07:08:35;7.53;;;2.40;;
14092;SDS011;7123;49.468;10.992;2023-12-20T07:11:02;2.30;;;2.10;;
14092;SDS011;7123;49.468;10.992;2023-12-20T07:13:29;2.70;;;2.50;;
14092;SDS011;7123;49.468;10.992;2023-12-20T07:15:56;2.60;;;2.40;;
14092;SDS011;7123;49.468;10.992;2023-12-20T07:18:23;6.10;;;2.57;;
14092;SDS011;7123;49.468;10.992;2023-12-20T07:20:50;2.77;;;2.57;;
14092;SDS011;7123;49.468;10.992;2023-12-20T07:23:17;2.70;;;2.50;;
14092;SDS011;7123;49.468;10.992;2023-12-20T07:25:45;2.70;;;2.50;;
14092;SDS011;7123;49.468;10.992;2023-12-20T07:28:12;2.60;;;2.40;;
14092;SDS011;7123;49.468;10.992;2023-12-20T07:30:39;2.90;;;2.70;;
14092;SDS011;7123;49.468;10.992;2023-12-20T07:33:06;2.67;;;2.47;;
14092;SDS011;7123;49.468;10.992;2023-12-20T07:35:35;2.67;;;2.47;;
14092;SDS011;7123;49.468;10.992;2023-12-20T07:38:02;3.03;;;2.73;;
14092;SDS011;7123;49.468;10.992;2023-12-20T07:40:28;3.00;;;2.80;;
14092;SDS011;7123;49.468;10.992;2023-12-20T07:42:55;3.23;;;3.03;;
14092;SDS011;7123;49.468;10.992;2023-12-20T07:45:22;2.70;;;2.50;;
14092;SDS011;7123;49.468;10.992;2023-12-20T07:47:49;3.20;;;3.00;;
14092;SDS011;7123;49.468;10.992;2023-12-20T07:50:16;3.50;;;3.20;;
14092;SDS011;7123;49.468;10.992;2023-12-20T07:52:43;3.13;;;2.90;;
14092;SDS011;7123;49.468;10.992;2023-12-20T07:55:10;3.80;;;3.50;;
14092;SDS011;7123;49.468;10.992;2023-12-20T07:57:37;3.30;;;3.00;;
14092;SDS011;7123;49.468;10.992;2023-12-20T08:00:03;5.77;;;3.53;;
14092;SDS011;7123;49.468;10.992;2023-12-20T08:02:31;3.60;;;3.30;;
14092;SDS011;7123;49.468;10.992;2023-12-20T08:04:58;3.50;;;3.20;;
14092;SDS011;7123;49.468;10.992;2023-12-20T08:07:25;3.40;;;3.20;;
14092;SDS011;7123;49.468;10.992;2023-12-20T08:09:51;3.60;;;3.30;;
14092;SDS011;7123;49.468;10.992;2023-12-20T08:12:19;3.00;;;2.80;;
14092;SDS011;7123;49.468;10.992;2023-12-20T08:14:45;3.40;;;3.10;;
14092;SDS011;7123;49.468;10.992;2023-12-20T08:17:12;3.43;;;3.23;;
14092;SDS011;7123;49.468;10.992;2023-12-20T08:19:42;3.03;;;2.83;;
14092;SDS011;7123;49.468;10.992;2023-12-20T08:22:09;2.97;;;2.60;;
14092;SDS011;7123;49.468;10.992;2023-12-20T08:24:35;2.53;;;2.33;;
14092;SDS011;7123;49.468;10.992;2023-12-20T08:27:02;2.90;;;2.70;;
14092;SDS011;7123;49.468;10.992;2023-12-20T08:29:30;2.40;;;2.20;;
14092;SDS011;7123;49.468;10.992;2023-12-20T08:31:56;4.60;;;2.53;;
14092;SDS011;7123;49.468;10.992;2023-12-20T08:34:23;2.57;;;2.37;;
14092;SDS011;7123;49.468;10.992;2023-12-20T08:36:51;2.90;;;2.70;;
14092;SDS011;7123;49.468;10.992;2023-12-20T08:39:17;2.50;;;2.30;;
14092;SDS011;7123;49.468;10.992;2023-12-20T08:41:44;2.57;;;2.37;;
14092;SDS011;7123;49.468;10.992;2023-12-20T08:44:11;3.00;;;2.40;;
14092;SDS011;7123;49.468;10.992;2023-12-20T08:46:38;3.03;;;2.07;;
14092;SDS011;7123;49.468;10.992;2023-12-20T08:49:04;3.13;;;2.53;;
14092;SDS011;7123;49.468;10.992;2023-12-20T08:51:31;2.13;;;2.00;;
14092;SDS011;7123;49.468;10.992;2023-12-20T08:53:59;2.07;;;1.97;;
14092;SDS011;7123;49.468;10.992;2023-12-20T08:56:26;2.27;;;2.17;;
14092;SDS011;7123;49.468;10.992;2023-12-20T08:58:53;4.00;;;2.57;;
14092;SDS011;7123;49.468;10.992;2023-12-20T09:01:20;2.73;;;2.20;;
14092;SDS011;7123;49.468;10.992;2023-12-20T09:03:47;2.60;;;2.40;;
14092;SDS011;7123;49.468;10.992;2023-12-20T09:06:14;2.30;;;2.10;;
14092;SDS011;7123;49.468;10.992;2023-12-20T09:08:41;2.87;;;2.40;;
14092;SDS011;7123;49.468;10.992;2023-12-20T09:11:08;3.23;;;2.20;;
14092;SDS011;7123;49.468;10.992;2023-12-20T09:13:35;2.50;;;2.00;;
14092;SDS011;7123;49.468;10.992;2023-12-20T09:16:02;2.30;;;1.93;;
14092;SDS011;7123;49.468;10.992;2023-12-20T09:18:30;2.67;;;2.47;;
14092;SDS011;7123;49.468;10.992;2023-12-20T09:20:56;2.53;;;2.33;;
14092;SDS011;7123;49.468;10.992;2023-12-20T09:23:23;2.33;;;2.00;;
14092;SDS011;7123;49.468;10.992;2023-12-20T09:25:50;2.30;;;2.10;;
14092;SDS011;7123;49.468;10.992;2023-12-20T09:28:20;2.37;;;2.13;;
14092;SDS011;7123;49.468;10.992;2023-12-20T09:30:47;2.83;;;1.63;;
14092;SDS011;7123;49.468;10.992;2023-12-20T09:33:14;6.30;;;2.20;;
14092;SDS011;7123;49.468;10.992;2023-12-20T09:35:42;4.67;;;2.13;;
14092;SDS011;7123;49.468;10.992;2023-12-20T09:38:10;2.40;;;1.60;;
14092;SDS011;7123;49.468;10.992;2023-12-20T09:40:37;2.43;;;2.03;;
14092;SDS011;7123;49.468;10.992;2023-12-20T09:43:11;2.03;;;1.83;;
14092;SDS011;7123;49.468;10.992;2023-12-20T09:45:41;2.77;;;1.33;;
14092;SDS011;7123;49.468;10.992;2023-12-20T09:48:11;1.60;;;1.50;;
14092;SDS011;7123;49.468;10.992;2023-12-20T09:50:40;4.33;;;1.53;;
14092;SDS011;7123;49.468;10.992;2023-12-20T09:53:10;3.87;;;1.30;;
14092;SDS011;7123;49.468;10.992;2023-12-20T09:55:41;0.90;;;0.90;;
14092;SDS011;7123;49.468;10.992;2023-12-20T09:58:08;1.20;;;1.10;;
14092;SDS011;7123;49.468;10.992;2023-12-20T10:00:35;1.37;;;1.27;;
14092;SDS011;7123;49.468;10.992;2023-12-20T10:03:02;1.70;;;1.30;;
14092;SDS011;7123;49.468;10.992;2023-12-20T10:05:32;9.00;;;1.70;;
14092;SDS011;7123;49.468;10.992;2023-12-20T10:08:00;3.27;;;1.37;;
14092;SDS011;7123;49.468;10.992;2023-12-20T10:10:28;6.17;;;1.70;;
14092;SDS011;7123;49.468;10.992;2023-12-20T10:13:11;2.13;;;1.53;;
14092;SDS011;7123;49.468;10.992;2023-12-20T10:15:38;3.33;;;1.30;;
14092;SDS011;7123;49.468;10.992;2023-12-20T10:18:06;3.43;;;1.47;;
14092;SDS011;7123;49.468;10.992;2023-12-20T10:20:34;4.93;;;1.27;;
14092;SDS011;7123;49.468;10.992;2023-12-20T10:23:01;5.30;;;1.40;;
14092;SDS011;7123;49.468;10.992;2023-12-20T10:25:28;4.50;;;1.53;;
14092;SDS011;7123;49.468;10.992;2023-12-20T10:28:09;1.93;;;1.10;;
14092;SDS011;7123;49.468;10.992;2023-12-20T10:30:36;5.03;;;1.13;;
14092;SDS011;7123;49.468;10.992;2023-12-20T10:33:05;1.53;;;1.10;;
14092;SDS011;7123;49.468;10.992;2023-12-20T10:35:33;2.57;;;1.10;;
14092;SDS011;7123;49.468;10.992;2023-12-20T10:38:02;4.63;;;1.40;;
14092;SDS011;7123;49.468;10.992;2023-12-20T10:40:36;3.67;;;1.33;;
14092;SDS011;7123;49.468;10.992;2023-12-20T10:43:04;5.03;;;1.60;;
14092;SDS011;7123;49.468;10.992;2023-12-20T10:45:31;4.57;;;2.00;;
14092;SDS011;7123;49.468;10.992;2023-12-20T10:47:58;6.03;;;1.17;;
14092;SDS011;7123;49.468;10.992;2023-12-20T10:50:26;6.03;;;1.40;;
14092;SDS011;7123;49.468;10.992;2023-12-20T10:52:54;2.77;;;1.53;;
14092;SDS011;7123;49.468;10.992;2023-12-20T10:55:22;7.83;;;1.63;;
14092;SDS011;7123;49.468;10.992;2023-12-20T10:58:08;4.97;;;1.53;;
14092;SDS011;7123;49.468;10.992;2023-12-20T11:00:38;6.50;;;1.47;;
14092;SDS011;7123;49.468;10.992;2023-12-20T11:03:08;3.57;;;1.37;;
14092;SDS011;7123;49.468;10.992;2023-12-20T11:05:51;3.13;;;1.50;;
14092;SDS011;7123;49.468;10.992;2023-12-20T11:08:32;4.23;;;1.80;;
14092;SDS011;7123;49.468;10.992;2023-12-20T11:11:13;3.97;;;1.30;;
14092;SDS011;7123;49.468;10.992;2023-12-20T11:14:03;4.57;;;1.97;;
14092;SDS011;7123;49.468;10.992;2023-12-20T11:16:37;4.60;;;1.77;;
14092;SDS011;7123;49.468;10.992;2023-12-20T11:19:17;3.60;;;1.10;;
14092;SDS011;7123;49.468;10.992;2023-12-20T11:21:44;3.23;;;1.40;;
14092;SDS011;7123;49.468;10.992;2023-12-20T11:24:12;4.23;;;1.67;;
14092;SDS011;7123;49.468;10.992;2023-12-20T11:26:39;4.87;;;1.60;;
14092;SDS011;7123;49.468;10.992;2023-12-20T11:31:59;2.83;;;1.23;;
14092;SDS011;7123;49.468;10.992;2023-12-20T11:34:28;1.67;;;1.57;;
14092;SDS011;7123;49.468;10.992;2023-12-20T11:36:58;4.47;;;1.70;;
14092;SDS011;7123;49.468;10.992;2023-12-20T11:39:26;4.90;;;1.57;;
14092;SDS011;7123;49.468;10.992;2023-12-20T11:41:56;1.17;;;1.07;;
14092;SDS011;7123;49.468;10.992;2023-12-20T11:44:25;2.03;;;1.10;;
14092;SDS011;7123;49.468;10.992;2023-12-20T11:46:52;4.70;;;1.70;;
14092;SDS011;7123;49.468;10.992;2023-12-20T11:49:22;3.00;;;1.57;;
14092;SDS011;7123;49.468;10.992;2023-12-20T11:51:50;2.03;;;0.93;;
14092;SDS011;7123;49.468;10.992;2023-12-20T11:54:17;3.80;;;1.80;;
14092;SDS011;7123;49.468;10.992;2023-12-20T11:56:45;6.03;;;1.77;;
14092;SDS011;7123;49.468;10.992;2023-12-20T11:59:12;2.80;;;1.60;;
14092;SDS011;7123;49.468;10.992;2023-12-20T12:01:49;4.73;;;1.80;;
14092;SDS011;7123;49.468;10.992;2023-12-20T12:04:17;2.97;;;1.20;;
14092;SDS011;7123;49.468;10.992;2023-12-20T12:06:44;4.50;;;1.70;;
14092;SDS011;7123;49.468;10.992;2023-12-20T12:09:12;2.50;;;1.50;;
14092;SDS011;7123;49.468;10.992;2023-12-20T12:11:38;3.20;;;1.77;;
14092;SDS011;7123;49.468;10.992;2023-12-20T12:14:06;4.40;;;1.30;;
14092;SDS011;7123;49.468;10.992;2023-12-20T12:16:34;4.97;;;1.80;;
14092;SDS011;7123;49.468;10.992;2023-12-20T12:19:00;3.43;;;1.83;;
14092;SDS011;7123;49.468;10.992;2023-12-20T12:21:27;1.97;;;1.13;;
14092;SDS011;7123;49.468;10.992;2023-12-20T12:24:08;3.70;;;1.90;;
14092;SDS011;7123;49.468;10.992;2023-12-20T12:26:36;2.67;;;1.90;;
14092;SDS011;7123;49.468;10.992;2023-12-20T12:29:03;3.23;;;1.50;;
14092;SDS011;7123;49.468;10.992;2023-12-20T12:31:33;3.50;;;1.83;;
14092;SDS011;7123;49.468;10.992;2023-12-20T12:34:00;2.00;;;1.27;;
14092;SDS011;7123;49.468;10.992;2023-12-20T12:36:28;2.47;;;1.30;;
14092;SDS011;7123;49.468;10.992;2023-12-20T12:38:58;6.27;;;1.70;;
14092;SDS011;7123;49.468;10.992;2023-12-20T12:41:29;1.40;;;1.30;;
14092;SDS011;7123;49.468;10.992;2023-12-20T12:43:56;4.10;;;1.80;;
14092;SDS011;7123;49.468;10.992;2023-12-20T12:46:30;4.00;;;1.60;;
14092;SDS011;7123;49.468;10.992;2023-12-20T12:48:57;8.43;;;1.63;;
14092;SDS011;7123;49.468;10.992;2023-12-20T12:51:24;4.40;;;1.77;;
14092;SDS011;7123;49.468;10.992;2023-12-20T12:53:50;4.87;;;1.97;;
14092;SDS011;7123;49.468;10.992;2023-12-20T12:56:17;4.47;;;1.73;;
14092;SDS011;7123;49.468;10.992;2023-12-20T12:58:44;1.40;;;1.23;;
14092;SDS011;7123;49.468;10.992;2023-12-20T13:01:11;2.63;;;1.67;;
14092;SDS011;7123;49.468;10.992;2023-12-20T13:03:38;5.13;;;1.80;;
14092;SDS011;7123;49.468;10.992;2023-12-20T13:06:05;3.20;;;1.80;;
14092;SDS011;7123;49.468;10.992;2023-12-20T13:08:34;3.27;;;1.80;;
14092;SDS011;7123;49.468;10.992;2023-12-20T13:11:01;3.30;;;1.53;;
14092;SDS011;7123;49.468;10.992;2023-12-20T13:13:30;3.90;;;1.70;;
14092;SDS011;7123;49.468;10.992;2023-12-20T13:15:57;2.97;;;1.30;;
14092;SDS011;7123;49.468;10.992;2023-12-20T13:18:24;2.17;;;1.70;;
14092;SDS011;7123;49.468;10.992;2023-12-20T13:20:51;3.00;;;1.70;;
14092;SDS011;7123;49.468;10.992;2023-12-20T13:23:17;1.80;;;1.50;;
14092;SDS011;7123;49.468;10.992;2023-12-20T13:25:44;5.30;;;1.43;;
14092;SDS011;7123;49.468;10.992;2023-12-20T13:28:14;3.80;;;1.37;;
14092;SDS011;7123;49.468;10.992;2023-12-20T13:30:41;3.90;;;1.53;;
14092;SDS011;7123;49.468;10.992;2023-12-20T13:33:08;2.60;;;1.87;;
14092;SDS011;7123;49.468;10.992;2023-12-20T13:35:35;1.33;;;1.20;;
14092;SDS011;7123;49.468;10.992;2023-12-20T13:38:02;1.83;;;1.37;;
14092;SDS011;7123;49.468;10.992;2023-12-20T13:40:29;2.70;;;1.57;;
14092;SDS011;7123;49.468;10.992;2023-12-20T13:42:56;1.87;;;1.03;;
14092;SDS011;7123;49.468;10.992;2023-12-20T13:45:23;2.30;;;1.30;;
14092;SDS011;7123;49.468;10.992;2023-12-20T13:47:51;1.97;;;1.20;;
14092;SDS011;7123;49.468;10.992;2023-12-20T13:50:18;1.63;;;1.43;;
14092;SDS011;7123;49.468;10.992;2023-12-20T13:52:45;4.37;;;1.30;;
14092;SDS011;7123;49.468;10.992;2023-12-20T13:55:12;5.20;;;1.50;;
14092;SDS011;7123;49.468;10.992;2023-12-20T13:57:39;2.50;;;1.70;;
14092;SDS011;7123;49.468;10.992;2023-12-20T14:00:21;3.30;;;1.77;;
14092;SDS011;7123;49.468;10.992;2023-12-20T14:02:48;2.70;;;1.50;;
14092;SDS011;7123;49.468;10.992;2023-12-20T14:05:16;1.87;;;1.00;;
14092;SDS011;7123;49.468;10.992;2023-12-20T14:07:44;4.63;;;1.40;;
14092;SDS011;7123;49.468;10.992;2023-12-20T14:10:13;1.20;;;1.10;;
14092;SDS011;7123;49.468;10.992;2023-12-20T14:12:40;4.17;;;1.67;;
14092;SDS011;7123;49.468;10.992;2023-12-20T14:15:07;2.60;;;1.40;;
14092;SDS011;7123;49.468;10.992;2023-12-20T14:17:37;3.50;;;1.57;;
14092;SDS011;7123;49.468;10.992;2023-12-20T14:20:05;6.43;;;1.73;;
14092;SDS011;7123;49.468;10.992;2023-12-20T14:22:36;10.23;;;1.93;;
14092;SDS011;7123;49.468;10.992;2023-12-20T14:25:04;3.00;;;2.03;;
14092;SDS011;7123;49.468;10.992;2023-12-20T14:27:32;3.00;;;1.50;;
14092;SDS011;7123;49.468;10.992;2023-12-20T14:29:59;6.10;;;1.60;;
14092;SDS011;7123;49.468;10.992;2023-12-20T14:32:26;3.43;;;1.67;;
14092;SDS011;7123;49.468;10.992;2023-12-20T14:34:54;2.17;;;1.20;;
14092;SDS011;7123;49.468;10.992;2023-12-20T14:37:21;3.30;;;1.20;;
14092;SDS011;7123;49.468;10.992;2023-12-20T14:39:48;2.87;;;1.47;;
14092;SDS011;7123;49.468;10.992;2023-12-20T14:42:15;2.93;;;1.63;;
14092;SDS011;7123;49.468;10.992;2023-12-20T14:44:42;5.47;;;2.00;;
14092;SDS011;7123;49.468;10.992;2023-12-20T14:47:09;3.87;;;2.03;;
14092;SDS011;7123;49.468;10.992;2023-12-20T14:49:36;6.63;;;1.90;;
14092;SDS011;7123;49.468;10.992;2023-12-20T14:52:04;3.50;;;1.90;;
14092;SDS011;7123;49.468;10.992;2023-12-20T14:54:31;4.93;;;1.80;;